Anaco, Venezuela
Current Conditions -  °F | °C
As of 4:00 PM on Friday 19 Dec 2014 (Local Time) from SVBC Reporting Station
Scattered Clouds Scattered Clouds  
Wind Chill: 91°   Ceiling: Unl
Heat Index: 98°   Visibility: 6mi
Dew Point: 72°   Wind: 21mph
Humidity: 52%   Direction: 360°N
Pressure: 29.83"   Gusts: NA
Location:  9.44°N, 64.46°W
Report Text: SVBC 192000Z 36018KT 9999 SCT010 33/22 Q1010
Loading
Personal Weather Stations






























Interactive Weather Map New forecast layout! Learn more

10-Day Weather Forecast

Advertisements
Track Severe Weather on mobile